createdAt,value
2022-10-07T00:01:04.073Z,80.20
2022-10-07T00:02:36.132Z,79.79
2022-10-07T00:04:08.114Z,79.87
2022-10-07T00:05:41.179Z,79.65
2022-10-07T00:07:15.097Z,79.72
2022-10-07T00:08:49.176Z,79.84
2022-10-07T00:10:21.157Z,79.89
2022-10-07T00:11:53.149Z,80.18
2022-10-07T00:13:25.207Z,80.20
2022-10-07T00:14:57.249Z,79.85
2022-10-07T00:16:32.525Z,80.01
2022-10-07T00:18:04.714Z,79.87
2022-10-07T00:19:36.785Z,80.28
2022-10-07T00:21:14.117Z,79.99
2022-10-07T00:22:46.129Z,79.94
2022-10-07T00:24:18.111Z,80.49
2022-10-07T00:25:50.123Z,80.40
2022-10-07T00:27:22.097Z,80.66
2022-10-07T00:28:54.312Z,80.79
2022-10-07T00:30:26.379Z,80.59
2022-10-07T00:31:58.687Z,80.60
2022-10-07T00:33:32.016Z,80.56
2022-10-07T00:35:04.382Z,80.68
2022-10-07T00:36:37.753Z,80.58
2022-10-07T00:38:09.808Z,80.21
2022-10-07T00:39:42.210Z,80.36
2022-10-07T00:41:19.636Z,80.27
2022-10-07T00:42:51.606Z,79.92
2022-10-07T00:44:32.823Z,79.83
2022-10-07T00:46:29.877Z,80.23
2022-10-07T00:48:01.950Z,80.29
2022-10-07T00:49:41.019Z,80.30
2022-10-07T00:51:16.673Z,80.49
2022-10-07T00:52:53.256Z,80.26
2022-10-07T00:54:25.407Z,80.29
2022-10-07T00:55:58.333Z,79.89
2022-10-07T00:57:32.304Z,79.47
2022-10-07T00:59:06.867Z,79.71
2022-10-07T01:00:39.987Z,80.04
2022-10-07T01:02:12.153Z,79.88
2022-10-07T01:03:44.466Z,79.88
2022-10-07T01:05:16.745Z,79.98
2022-10-07T01:06:48.729Z,80.02
2022-10-07T01:08:21.274Z,79.92
2022-10-07T01:09:54.319Z,79.97
2022-10-07T01:12:08.386Z,79.99
2022-10-07T01:13:49.954Z,80.19
2022-10-07T01:15:43.269Z,80.18
2022-10-07T01:17:22.545Z,80.48
2022-10-07T01:19:10.277Z,80.74
2022-10-07T01:21:01.377Z,80.70
2022-10-07T01:23:02.246Z,80.74
2022-10-07T01:24:49.199Z,80.77
2022-10-07T01:26:47.878Z,80.46
2022-10-07T01:28:32.519Z,80.25
2022-10-07T01:30:07.036Z,80.67
2022-10-07T01:32:08.403Z,80.52
2022-10-07T01:33:41.376Z,80.81
2022-10-07T01:36:52.955Z,80.71
2022-10-07T01:38:26.720Z,80.74
2022-10-07T01:40:02.747Z,80.65
2022-10-07T01:41:37.161Z,80.67
2022-10-07T01:43:09.341Z,80.86
2022-10-07T01:44:41.713Z,80.94
2022-10-07T01:46:18.650Z,80.57
2022-10-07T01:47:51.731Z,80.37
2022-10-07T01:49:23.950Z,80.50
2022-10-07T01:50:57.402Z,80.30
2022-10-07T01:52:37.903Z,80.18
2022-10-07T01:54:27.993Z,80.19
2022-10-07T01:56:10.650Z,80.31
2022-10-07T01:57:56.812Z,80.42
2022-10-07T01:59:47.381Z,80.63
2022-10-07T02:01:25.397Z,80.71
2022-10-07T02:03:34.204Z,80.39
2022-10-07T02:05:20.143Z,80.35
2022-10-07T02:07:18.478Z,80.35
2022-10-07T02:08:53.094Z,80.46
2022-10-07T02:10:32.041Z,80.19
2022-10-07T02:12:25.550Z,80.14
2022-10-07T02:14:01.223Z,80.27
2022-10-07T02:15:40.281Z,80.23
2022-10-07T02:17:17.825Z,80.59
2022-10-07T02:18:51.978Z,80.73
2022-10-07T02:20:27.843Z,80.58
2022-10-07T02:22:03.053Z,80.68
2022-10-07T02:23:38.229Z,80.75
2022-10-07T02:25:11.743Z,80.60
2022-10-07T02:26:46.117Z,80.44
2022-10-07T02:28:20.852Z,80.80
2022-10-07T02:29:57.718Z,81.10
2022-10-07T02:31:31.262Z,81.03
2022-10-07T02:33:05.638Z,81.10
2022-10-07T02:34:38.769Z,80.78
2022-10-07T02:36:17.078Z,80.42
2022-10-07T02:37:50.250Z,80.72
2022-10-07T02:41:09.179Z,80.51
2022-10-07T02:42:55.807Z,80.47
2022-10-07T02:44:41.582Z,80.77
2022-10-07T02:46:17.357Z,80.73
2022-10-07T02:47:52.956Z,80.81
2022-10-07T02:49:26.765Z,80.80
2022-10-07T02:51:01.426Z,80.73
2022-10-07T02:52:33.648Z,81.09
2022-10-07T02:54:05.700Z,80.70
2022-10-07T02:55:37.941Z,80.35
2022-10-07T02:57:11.574Z,80.08
2022-10-07T02:58:46.188Z,80.32
2022-10-07T03:00:19.321Z,80.40
2022-10-07T03:01:52.864Z,80.40
2022-10-07T03:03:26.023Z,80.41
2022-10-07T03:04:58.628Z,80.77
2022-10-07T03:06:30.794Z,80.66
2022-10-07T03:08:09.254Z,80.85
2022-10-07T03:09:42.334Z,80.94
2022-10-07T03:11:14.317Z,80.98
2022-10-07T03:12:46.340Z,80.97
2022-10-07T03:15:52.314Z,80.93
2022-10-07T03:17:24.666Z,81.23
2022-10-07T03:18:56.677Z,81.13
2022-10-07T03:20:30.443Z,80.96
2022-10-07T03:22:03.099Z,80.97
2022-10-07T03:23:35.306Z,80.91
2022-10-07T03:25:07.714Z,80.65
2022-10-07T03:26:40.199Z,80.47
2022-10-07T03:28:12.300Z,80.69
2022-10-07T03:29:44.418Z,80.44
2022-10-07T03:31:16.589Z,80.81
2022-10-07T03:32:50.296Z,80.91
2022-10-07T03:34:23.899Z,80.73
2022-10-07T03:35:55.682Z,80.76
2022-10-07T03:37:30.103Z,80.99
2022-10-07T03:39:02.036Z,80.97
2022-10-07T03:40:34.869Z,80.87
2022-10-07T03:42:06.861Z,80.89
2022-10-07T03:43:38.826Z,81.13
2022-10-07T03:45:11.111Z,81.21
2022-10-07T03:46:43.130Z,81.34
2022-10-07T03:49:50.236Z,81.49
2022-10-07T03:51:22.255Z,81.63
2022-10-07T03:52:54.309Z,81.29
2022-10-07T03:54:26.665Z,81.04
2022-10-07T03:55:58.758Z,81.32
2022-10-07T03:57:49.355Z,81.51
2022-10-07T03:59:21.408Z,81.24
2022-10-07T04:00:53.664Z,81.15
2022-10-07T04:02:26.157Z,81.42
2022-10-07T04:04:00.727Z,81.35
2022-10-07T04:05:32.644Z,81.44
2022-10-07T04:07:04.701Z,81.30
2022-10-07T04:08:36.893Z,81.21
2022-10-07T04:10:09.801Z,81.33
2022-10-07T04:11:42.426Z,81.56
2022-10-07T04:13:14.481Z,82.10
2022-10-07T04:14:46.600Z,82.28
2022-10-07T04:16:18.882Z,82.17
2022-10-07T04:19:23.796Z,82.03
2022-10-07T04:21:00.337Z,81.45
2022-10-07T04:22:32.389Z,81.37
2022-10-07T04:24:04.462Z,81.50
2022-10-07T04:25:38.021Z,81.71
2022-10-07T04:27:09.864Z,81.56
2022-10-07T04:28:42.846Z,82.01
2022-10-07T04:30:16.028Z,82.04
2022-10-07T04:31:48.244Z,82.06
2022-10-07T04:33:22.273Z,81.92
2022-10-07T04:34:54.269Z,82.14
2022-10-07T04:36:27.591Z,82.21
2022-10-07T04:37:59.744Z,81.86
2022-10-07T04:39:49.271Z,81.89
2022-10-07T04:41:23.751Z,81.49
2022-10-07T04:43:14.437Z,81.69
2022-10-07T04:44:46.458Z,81.50
2022-10-07T04:46:18.675Z,81.38
2022-10-07T04:47:53.855Z,81.56
2022-10-07T04:49:26.466Z,81.49
2022-10-07T04:51:09.387Z,81.46
2022-10-07T04:52:42.828Z,81.59
2022-10-07T04:54:14.922Z,81.48
2022-10-07T04:55:52.114Z,81.86
2022-10-07T04:57:24.168Z,81.86
2022-10-07T04:58:56.421Z,81.84
2022-10-07T05:00:29.569Z,81.95
2022-10-07T05:02:02.308Z,82.20
2022-10-07T05:03:36.570Z,82.39
2022-10-07T05:05:10.046Z,82.39
2022-10-07T05:06:42.074Z,82.51
2022-10-07T05:08:15.821Z,82.46
2022-10-07T05:09:47.854Z,82.46
2022-10-07T05:11:19.852Z,82.43
2022-10-07T05:12:55.936Z,82.53
2022-10-07T05:14:28.408Z,82.47
2022-10-07T05:16:02.174Z,82.88
2022-10-07T05:19:06.954Z,82.65
2022-10-07T05:20:41.044Z,82.74
2022-10-07T05:22:13.074Z,82.71
2022-10-07T05:23:45.530Z,82.58
2022-10-07T05:25:17.829Z,82.53
2022-10-07T05:26:51.223Z,82.62
2022-10-07T05:28:24.391Z,82.76
2022-10-07T05:29:58.349Z,82.72
2022-10-07T05:31:30.684Z,82.74
2022-10-07T05:33:03.208Z,83.01
2022-10-07T05:34:35.721Z,82.78
2022-10-07T05:36:09.312Z,82.73
2022-10-07T05:37:41.444Z,83.16
2022-10-07T05:39:13.523Z,83.17
2022-10-07T05:40:46.048Z,83.13
2022-10-07T05:42:18.478Z,83.37
2022-10-07T05:43:50.837Z,83.42
2022-10-07T05:45:22.877Z,83.39
2022-10-07T05:47:09.153Z,83.51
2022-10-07T05:48:41.908Z,83.46
2022-10-07T05:50:14.552Z,83.49
2022-10-07T05:51:46.634Z,83.38
2022-10-07T05:53:18.863Z,83.62
2022-10-07T05:54:52.178Z,83.59
2022-10-07T05:56:24.327Z,83.18
2022-10-07T05:57:56.437Z,82.99
2022-10-07T05:59:28.449Z,83.20
2022-10-07T06:01:10.161Z,82.98
2022-10-07T06:02:46.745Z,83.10
2022-10-07T06:04:20.159Z,82.86
2022-10-07T06:05:53.278Z,82.73
2022-10-07T06:07:29.314Z,82.61
2022-10-07T06:09:28.107Z,82.85
2022-10-07T06:11:22.927Z,82.46
2022-10-07T06:13:10.201Z,82.28
2022-10-07T06:14:42.429Z,81.95
2022-10-07T06:16:14.521Z,81.91
2022-10-07T06:17:47.556Z,81.64
2022-10-07T06:19:22.973Z,81.30
2022-10-07T06:21:00.181Z,81.33
2022-10-07T06:22:32.200Z,81.11
2022-10-07T06:24:04.393Z,81.14
2022-10-07T06:25:36.377Z,80.90
2022-10-07T06:27:08.866Z,80.86
2022-10-07T06:28:42.537Z,80.80
2022-10-07T06:30:14.746Z,80.86
2022-10-07T06:31:46.896Z,81.02
2022-10-07T06:33:19.510Z,80.79
2022-10-07T06:34:52.101Z,79.90
2022-10-07T06:36:24.438Z,79.55
2022-10-07T06:37:56.586Z,79.31
2022-10-07T06:39:29.008Z,79.04
2022-10-07T06:41:02.280Z,78.70
2022-10-07T06:42:34.537Z,78.28
2022-10-07T06:44:07.217Z,77.75
2022-10-07T06:45:39.660Z,77.07
2022-10-07T06:47:23.075Z,76.86
2022-10-07T06:48:55.492Z,76.94
2022-10-07T06:50:27.713Z,76.85
2022-10-07T06:51:59.977Z,76.31
2022-10-07T06:53:32.874Z,76.28
2022-10-07T06:55:05.414Z,76.25
2022-10-07T06:56:38.074Z,76.05
2022-10-07T06:58:11.788Z,75.28
2022-10-07T06:59:44.621Z,75.23
2022-10-07T07:01:17.295Z,74.79
2022-10-07T07:02:49.652Z,74.32
2022-10-07T07:04:22.180Z,74.62
2022-10-07T07:05:57.770Z,74.29
2022-10-07T07:07:30.127Z,74.08
2022-10-07T07:09:05.027Z,73.97
2022-10-07T07:10:38.873Z,73.37
2022-10-07T07:12:11.086Z,73.22
2022-10-07T07:13:45.359Z,73.05
2022-10-07T07:15:18.400Z,73.08
2022-10-07T07:16:50.710Z,72.87
2022-10-07T07:18:23.251Z,72.40
2022-10-07T07:19:55.953Z,72.46
2022-10-07T07:21:33.897Z,72.29
2022-10-07T07:23:08.279Z,72.34
2022-10-07T07:24:40.627Z,71.79
2022-10-07T07:26:13.561Z,71.07
2022-10-07T07:27:50.299Z,70.55
2022-10-07T07:29:24.908Z,70.57
2022-10-07T07:30:57.276Z,70.47
2022-10-07T07:32:32.612Z,70.65
2022-10-07T07:34:11.864Z,69.54
2022-10-07T07:35:45.334Z,69.52
2022-10-07T07:37:17.828Z,69.21
2022-10-07T07:38:54.875Z,69.14
2022-10-07T07:40:27.306Z,68.67
2022-10-07T07:41:59.625Z,67.89
2022-10-07T07:43:32.290Z,67.09
2022-10-07T07:45:04.631Z,67.75
2022-10-07T07:46:42.113Z,67.56
2022-10-07T07:48:15.749Z,68.06
2022-10-07T07:49:50.588Z,67.20
2022-10-07T07:51:23.136Z,66.86
2022-10-07T07:52:57.522Z,66.64
2022-10-07T07:54:30.070Z,66.35
2022-10-07T07:56:03.585Z,65.99
2022-10-07T07:57:36.446Z,65.62
2022-10-07T07:59:09.092Z,65.45
2022-10-07T08:00:41.691Z,65.85
2022-10-07T08:02:14.075Z,65.69
2022-10-07T08:03:47.979Z,65.88
2022-10-07T08:05:23.861Z,65.44
2022-10-07T08:06:56.660Z,64.89
2022-10-07T08:08:30.584Z,65.13
2022-10-07T08:10:03.013Z,65.91
2022-10-07T08:11:35.592Z,65.38
2022-10-07T08:13:08.538Z,64.68
2022-10-07T08:14:41.681Z,63.77
2022-10-07T08:16:18.506Z,63.43
2022-10-07T08:17:50.588Z,62.84
2022-10-07T08:19:22.726Z,62.03
2022-10-07T08:21:00.220Z,61.98
2022-10-07T08:22:32.276Z,61.24
2022-10-07T08:24:06.115Z,60.04
2022-10-07T08:25:38.601Z,60.34
2022-10-07T08:27:10.972Z,60.71
2022-10-07T08:28:43.193Z,60.32
2022-10-07T08:30:18.056Z,60.48
2022-10-07T08:31:50.439Z,61.76
2022-10-07T08:33:23.356Z,62.04
2022-10-07T08:34:58.195Z,61.95
2022-10-07T08:36:33.181Z,61.64
2022-10-07T08:38:05.397Z,61.55
2022-10-07T08:39:37.766Z,61.64
2022-10-07T08:41:10.293Z,61.91
2022-10-07T08:42:43.494Z,60.13
2022-10-07T08:44:18.150Z,59.65
2022-10-07T08:45:52.229Z,58.97
2022-10-07T08:47:28.226Z,59.20
2022-10-07T08:49:05.881Z,59.38
2022-10-07T08:52:25.948Z,55.98
2022-10-07T08:54:01.219Z,56.66
2022-10-07T08:55:44.283Z,57.93
2022-10-07T08:57:51.092Z,57.96
2022-10-07T08:59:34.382Z,58.07
2022-10-07T09:01:22.893Z,58.01
2022-10-07T09:03:10.226Z,59.00
2022-10-07T09:05:20.066Z,58.79
2022-10-07T09:07:25.428Z,56.16
2022-10-07T09:09:06.948Z,56.18
2022-10-07T09:10:43.231Z,54.44
2022-10-07T09:12:44.136Z,54.87
2022-10-07T09:14:19.161Z,56.02
2022-10-07T09:16:06.927Z,55.02
2022-10-07T09:17:44.454Z,54.83
2022-10-07T09:19:41.350Z,53.41
2022-10-07T09:21:17.618Z,55.43
2022-10-07T09:22:53.701Z,54.91
2022-10-07T09:24:30.752Z,53.66
2022-10-07T09:26:10.867Z,54.08
2022-10-07T09:27:43.481Z,51.70
2022-10-07T09:29:19.223Z,52.89
2022-10-07T09:30:51.612Z,53.41
2022-10-07T09:32:24.025Z,53.93
2022-10-07T09:33:56.575Z,54.11
2022-10-07T09:35:34.463Z,52.11
2022-10-07T09:37:22.821Z,53.09
2022-10-07T09:38:55.214Z,53.12
2022-10-07T09:41:06.425Z,50.00
2022-10-07T09:42:43.672Z,51.68
2022-10-07T09:44:15.858Z,52.39
2022-10-07T09:45:48.287Z,52.09
2022-10-07T09:47:23.672Z,47.84
2022-10-07T09:50:44.307Z,52.52
2022-10-07T09:52:16.590Z,51.98
2022-10-07T09:54:03.949Z,50.34
2022-10-07T09:55:43.870Z,51.52
2022-10-07T09:57:24.873Z,51.60
2022-10-07T09:59:21.154Z,51.92
2022-10-07T10:00:56.393Z,49.67
2022-10-07T10:02:31.932Z,47.88
2022-10-07T10:04:04.282Z,48.61
2022-10-07T10:05:42.202Z,49.79
2022-10-07T10:07:24.292Z,48.16
2022-10-07T10:08:57.974Z,47.77
2022-10-07T10:10:36.619Z,48.28
2022-10-07T10:12:14.112Z,47.66
2022-10-07T10:13:47.512Z,47.61
2022-10-07T10:15:39.059Z,46.43
2022-10-07T10:17:22.060Z,45.73
2022-10-07T10:18:56.228Z,46.18
2022-10-07T10:20:33.220Z,47.09
2022-10-07T10:22:05.734Z,47.49
2022-10-07T10:23:47.971Z,48.64
2022-10-07T10:25:47.623Z,49.13
2022-10-07T10:27:26.999Z,49.07
2022-10-07T10:29:08.454Z,48.41
2022-10-07T10:30:53.026Z,48.33
2022-10-07T10:33:04.623Z,48.20
2022-10-07T10:34:56.251Z,47.08
2022-10-07T10:36:30.764Z,47.42
2022-10-07T10:38:22.085Z,45.24
2022-10-07T10:40:16.841Z,46.51
2022-10-07T10:41:53.992Z,46.34
2022-10-07T10:43:26.225Z,45.84
2022-10-07T10:45:08.175Z,45.58
2022-10-07T10:46:55.183Z,45.94
2022-10-07T10:48:38.768Z,45.86
2022-10-07T10:50:28.324Z,45.79
2022-10-07T10:52:20.520Z,44.39
2022-10-07T10:55:46.843Z,43.56
2022-10-07T10:57:32.088Z,44.41
2022-10-07T10:59:09.807Z,43.94
2022-10-07T11:00:51.280Z,43.31
2022-10-07T11:02:34.110Z,45.49
2022-10-07T11:04:06.521Z,45.24
2022-10-07T11:05:40.898Z,43.28
2022-10-07T11:07:36.131Z,43.23
2022-10-07T11:09:16.606Z,43.27
2022-10-07T11:10:51.797Z,44.73
2022-10-07T11:12:28.421Z,45.65
2022-10-07T11:14:04.319Z,44.47
2022-10-07T11:15:41.113Z,44.89
2022-10-07T11:17:14.293Z,42.32
2022-10-07T11:18:49.500Z,43.91
2022-10-07T11:20:32.627Z,44.42
2022-10-07T11:22:05.560Z,46.05
2022-10-07T11:24:04.535Z,45.08
2022-10-07T11:25:37.289Z,44.75
2022-10-07T11:27:15.422Z,45.44
2022-10-07T11:28:50.427Z,45.36
2022-10-07T11:30:32.323Z,44.46
2022-10-07T11:32:23.758Z,44.90
2022-10-07T11:34:14.714Z,44.67
2022-10-07T11:35:54.665Z,44.69
2022-10-07T11:37:48.248Z,45.42
2022-10-07T11:39:21.643Z,44.47
2022-10-07T11:40:56.935Z,42.27
2022-10-07T11:42:31.763Z,43.00
2022-10-07T11:44:10.200Z,41.72
2022-10-07T11:45:50.167Z,42.44
2022-10-07T11:47:25.933Z,43.95
2022-10-07T11:49:05.785Z,43.30
2022-10-07T11:50:45.092Z,43.58
2022-10-07T11:52:27.287Z,42.19
2022-10-07T11:54:03.447Z,42.90
2022-10-07T11:55:44.654Z,42.27
2022-10-07T11:57:21.470Z,44.10
2022-10-07T11:59:05.772Z,43.65
2022-10-07T12:00:40.776Z,44.18
2022-10-07T12:02:39.072Z,42.96
2022-10-07T12:04:29.259Z,41.77
2022-10-07T12:06:10.791Z,40.11
2022-10-07T12:07:43.227Z,42.03
2022-10-07T12:09:53.119Z,40.81
2022-10-07T12:11:37.481Z,41.60
2022-10-07T12:13:09.844Z,40.84
2022-10-07T12:14:44.342Z,43.12
2022-10-07T12:16:29.142Z,43.63
2022-10-07T12:18:04.233Z,43.04
2022-10-07T12:19:36.559Z,42.67
2022-10-07T12:21:09.154Z,41.24
2022-10-07T12:22:41.587Z,42.21
2022-10-07T12:24:16.210Z,41.12
2022-10-07T12:25:56.313Z,42.54
2022-10-07T12:27:30.249Z,42.60
2022-10-07T12:29:03.820Z,42.73
2022-10-07T12:30:42.899Z,42.16
2022-10-07T12:32:47.116Z,43.70
2022-10-07T12:34:28.777Z,42.82
2022-10-07T12:36:29.867Z,42.45
2022-10-07T12:38:11.145Z,41.11
2022-10-07T12:39:43.467Z,43.87
2022-10-07T12:41:23.446Z,43.23
2022-10-07T12:43:01.452Z,43.06
2022-10-07T12:44:38.978Z,42.16
2022-10-07T12:46:15.634Z,41.26
2022-10-07T12:47:49.173Z,41.38
2022-10-07T12:49:42.191Z,42.29
2022-10-07T12:51:19.835Z,42.51
2022-10-07T12:52:56.245Z,42.25
2022-10-07T12:54:28.402Z,42.72
2022-10-07T12:56:00.920Z,42.34
2022-10-07T12:57:39.093Z,41.73
2022-10-07T12:59:48.505Z,43.25
2022-10-07T13:01:40.526Z,41.91
2022-10-07T13:03:42.074Z,42.54
2022-10-07T13:05:51.760Z,41.66
2022-10-07T13:07:55.147Z,41.92
2022-10-07T13:09:30.258Z,42.68
2022-10-07T13:11:14.367Z,43.49
2022-10-07T13:13:07.462Z,41.52
2022-10-07T13:14:49.709Z,42.07
2022-10-07T13:16:34.539Z,41.73
2022-10-07T13:18:23.152Z,41.94
2022-10-07T13:20:16.427Z,41.89
2022-10-07T13:21:51.828Z,41.61
2022-10-07T13:23:27.208Z,40.97
2022-10-07T13:25:01.933Z,41.48
2022-10-07T13:26:34.272Z,43.02
2022-10-07T13:28:07.667Z,41.93
2022-10-07T13:29:40.134Z,41.64
2022-10-07T13:31:36.099Z,41.66
2022-10-07T13:33:26.972Z,42.52
2022-10-07T14:09:58.977Z,45.21
2022-10-07T14:11:31.505Z,44.39
2022-10-07T14:13:10.561Z,43.98
2022-10-07T14:14:56.389Z,42.82
2022-10-07T14:16:28.792Z,43.70
2022-10-07T14:18:09.725Z,43.37
2022-10-07T14:19:42.047Z,43.02
2022-10-07T14:21:17.964Z,44.11
2022-10-07T14:23:28.777Z,44.90
2022-10-07T14:25:04.795Z,44.87
2022-10-07T14:26:44.095Z,44.29
2022-10-07T14:28:28.812Z,44.53
2022-10-07T14:30:01.979Z,44.13
2022-10-07T14:31:52.831Z,44.45
2022-10-07T14:33:54.500Z,43.81
2022-10-07T14:35:27.472Z,44.26
2022-10-07T14:37:08.735Z,44.25
2022-10-07T14:38:42.772Z,45.07
2022-10-07T14:40:20.158Z,45.47
2022-10-07T14:41:52.543Z,44.97
2022-10-07T14:43:32.335Z,44.78
2022-10-07T14:45:08.388Z,45.26
2022-10-07T14:46:40.727Z,45.42
2022-10-07T14:48:14.421Z,45.23
2022-10-07T14:49:46.969Z,45.43
2022-10-07T14:51:25.420Z,44.89
2022-10-07T14:52:58.586Z,44.77
2022-10-07T14:54:31.292Z,44.65
2022-10-07T14:56:04.552Z,45.11
2022-10-07T14:57:36.414Z,45.23
2022-10-07T14:59:14.713Z,44.94
2022-10-07T15:00:47.492Z,45.52
2022-10-07T15:02:20.293Z,45.31
2022-10-07T15:03:53.238Z,45.41
2022-10-07T15:05:28.611Z,45.58
2022-10-07T15:07:00.888Z,45.69
2022-10-07T15:08:33.380Z,46.12
2022-10-07T15:10:12.291Z,45.98
2022-10-07T15:11:45.212Z,46.68
2022-10-07T15:13:17.306Z,46.94
2022-10-07T15:14:49.514Z,47.14
2022-10-07T15:16:24.468Z,47.60
2022-10-07T15:17:56.787Z,47.97
2022-10-07T15:19:29.110Z,47.99
2022-10-07T15:21:01.576Z,48.45
2022-10-07T15:22:33.966Z,48.75
2022-10-07T15:24:06.616Z,48.96
2022-10-07T15:25:40.620Z,48.77
2022-10-07T15:27:13.014Z,49.27
2022-10-07T15:28:45.457Z,49.72
2022-10-07T15:30:17.718Z,50.58
2022-10-07T15:31:52.584Z,51.37
2022-10-07T15:33:24.876Z,51.87
2022-10-07T15:34:58.536Z,52.58
2022-10-07T15:36:33.008Z,52.91
2022-10-07T15:38:05.301Z,53.65
2022-10-07T15:39:39.791Z,54.23
2022-10-07T15:41:29.428Z,54.43
2022-10-07T15:43:01.773Z,54.78
2022-10-07T15:44:34.031Z,55.81
2022-10-07T15:46:06.595Z,56.44
2022-10-07T15:47:39.702Z,56.45
2022-10-07T15:49:12.119Z,56.16
2022-10-07T15:50:48.813Z,56.33
2022-10-07T15:52:21.432Z,56.46
2022-10-07T15:53:54.746Z,56.86
2022-10-07T15:55:26.883Z,56.92
2022-10-07T15:56:59.419Z,56.47
2022-10-07T15:58:31.619Z,56.40
2022-10-07T16:00:05.296Z,56.79
2022-10-07T16:01:37.861Z,56.77
2022-10-07T16:03:10.329Z,56.78
2022-10-07T16:04:43.268Z,56.78
2022-10-07T16:06:18.698Z,56.48
2022-10-07T16:07:50.855Z,56.03
2022-10-07T16:09:23.763Z,56.71
2022-10-07T16:10:56.060Z,56.56
2022-10-07T16:12:28.217Z,56.90
2022-10-07T16:14:06.740Z,57.73
2022-10-07T16:15:39.113Z,58.77
2022-10-07T16:17:11.510Z,60.04
2022-10-07T16:18:45.784Z,61.00
2022-10-07T16:20:19.108Z,61.94
2022-10-07T16:21:51.133Z,61.91
2022-10-07T16:23:23.512Z,60.86
2022-10-07T16:24:56.014Z,60.80
2022-10-07T16:26:30.742Z,60.76
2022-10-07T16:28:21.230Z,61.24
2022-10-07T16:30:11.791Z,60.47
2022-10-07T16:31:45.391Z,61.13
2022-10-07T16:33:19.049Z,62.40
2022-10-07T16:34:52.045Z,62.83
2022-10-07T16:36:25.047Z,62.66
2022-10-07T16:37:57.607Z,62.56
2022-10-07T16:39:29.933Z,63.12
2022-10-07T16:41:02.707Z,63.76
2022-10-07T16:42:35.053Z,64.35
2022-10-07T16:44:08.477Z,64.77
2022-10-07T16:45:40.650Z,64.97
2022-10-07T16:47:13.421Z,65.00
2022-10-07T16:48:47.288Z,64.71
2022-10-07T16:50:21.250Z,65.34
2022-10-07T16:51:53.459Z,65.43
2022-10-07T16:53:27.575Z,65.70
2022-10-07T16:55:00.639Z,66.36
2022-10-07T16:56:35.621Z,66.53
2022-10-07T16:58:08.028Z,66.83
2022-10-07T16:59:40.418Z,67.34
2022-10-07T17:01:15.024Z,67.35
2022-10-07T17:02:47.322Z,67.52
2022-10-07T17:04:19.834Z,67.40
2022-10-07T17:05:58.793Z,67.36
2022-10-07T17:07:31.098Z,67.35
2022-10-07T17:09:04.864Z,67.57
2022-10-07T17:10:37.524Z,68.25
2022-10-07T17:12:09.925Z,67.98
2022-10-07T17:13:42.024Z,67.83
2022-10-07T17:15:14.392Z,68.56
2022-10-07T17:16:49.355Z,68.92
2022-10-07T17:18:21.799Z,69.32
2022-10-07T17:19:54.346Z,69.29
2022-10-07T17:21:29.474Z,69.18
2022-10-07T17:23:01.938Z,68.93
2022-10-07T17:24:34.379Z,69.78
2022-10-07T17:26:09.949Z,69.64
2022-10-07T17:27:42.196Z,69.63
2022-10-07T17:29:18.523Z,69.46
2022-10-07T17:30:51.066Z,69.68
2022-10-07T17:32:27.576Z,69.59
2022-10-07T17:34:00.213Z,69.86
2022-10-07T17:35:35.604Z,70.36
2022-10-07T17:37:11.284Z,69.87
2022-10-07T17:38:45.496Z,69.79
2022-10-07T17:41:50.174Z,70.29
2022-10-07T17:43:22.504Z,70.62
2022-10-07T17:44:55.551Z,70.89
2022-10-07T17:46:29.745Z,70.60
2022-10-07T17:48:03.872Z,70.69
2022-10-07T17:49:36.673Z,70.54
2022-10-07T17:51:09.090Z,70.95
2022-10-07T17:52:42.092Z,71.17
2022-10-07T17:54:15.010Z,71.18
2022-10-07T17:55:53.092Z,71.21
2022-10-07T17:57:26.018Z,71.43
2022-10-07T17:58:58.727Z,71.51
2022-10-07T18:00:32.345Z,71.82
2022-10-07T18:02:05.683Z,72.03
2022-10-07T18:03:38.654Z,72.34
2022-10-07T18:05:11.693Z,72.36
2022-10-07T18:06:44.082Z,72.36
2022-10-07T18:08:16.299Z,72.70
2022-10-07T18:09:48.321Z,73.17
2022-10-07T18:11:20.464Z,72.88
2022-10-07T18:13:10.944Z,73.03
2022-10-07T18:16:16.134Z,72.92
2022-10-07T18:17:52.159Z,72.98
2022-10-07T18:19:25.276Z,73.36
2022-10-07T18:21:04.606Z,73.47
2022-10-07T18:22:36.843Z,73.75
2022-10-07T18:24:09.235Z,74.28
2022-10-07T18:25:41.324Z,74.68
2022-10-07T18:27:13.897Z,74.92
2022-10-07T18:28:49.463Z,74.95
2022-10-07T18:30:21.753Z,75.01
2022-10-07T18:31:54.131Z,75.32
2022-10-07T18:33:26.410Z,75.10
2022-10-07T18:34:58.488Z,75.17
2022-10-07T18:36:30.604Z,75.27
2022-10-07T18:38:02.759Z,75.17
2022-10-07T18:39:34.851Z,75.22
2022-10-07T18:41:14.739Z,75.02
2022-10-07T18:42:47.073Z,75.25
2022-10-07T18:45:59.149Z,75.40
2022-10-07T18:47:31.338Z,75.35
2022-10-07T18:49:03.624Z,75.62
2022-10-07T18:50:35.797Z,75.54
2022-10-07T18:52:08.049Z,75.50
2022-10-07T18:53:42.148Z,75.73
2022-10-07T18:55:14.239Z,75.85
2022-10-07T18:56:50.309Z,75.93
2022-10-07T18:58:22.474Z,75.93
2022-10-07T18:59:54.727Z,75.98
2022-10-07T19:01:30.521Z,76.13
2022-10-07T19:03:02.693Z,76.01
2022-10-07T19:04:35.083Z,76.29
2022-10-07T19:06:12.664Z,76.32
2022-10-07T19:07:44.970Z,76.46
2022-10-07T19:09:19.597Z,76.41
2022-10-07T19:10:51.879Z,76.57
2022-10-07T19:12:50.168Z,76.74
2022-10-07T19:14:26.174Z,76.43
2022-10-07T19:16:03.109Z,76.69
2022-10-07T19:17:35.162Z,76.83
2022-10-07T19:19:14.105Z,76.85
2022-10-07T19:20:58.390Z,77.23
2022-10-07T19:22:30.621Z,77.08
2022-10-07T19:24:03.783Z,77.00
2022-10-07T19:25:48.379Z,77.06
2022-10-07T19:27:20.643Z,77.11
2022-10-07T19:28:53.992Z,77.24
2022-10-07T19:30:26.254Z,77.25
2022-10-07T19:31:59.177Z,77.13
2022-10-07T19:33:31.686Z,77.09
2022-10-07T19:35:06.630Z,76.85
2022-10-07T19:36:40.720Z,76.82
2022-10-07T19:38:13.725Z,77.20
2022-10-07T19:39:45.995Z,77.20
2022-10-07T19:41:19.680Z,77.13
2022-10-07T19:42:52.010Z,77.04
2022-10-07T19:44:24.289Z,77.47
2022-10-07T19:46:01.857Z,77.63
2022-10-07T19:47:37.107Z,77.47
2022-10-07T19:49:10.544Z,77.58
2022-10-07T19:50:42.713Z,77.37
2022-10-07T19:52:15.129Z,77.48
2022-10-07T19:53:48.059Z,77.41
2022-10-07T19:55:20.174Z,77.01
2022-10-07T19:56:52.494Z,77.07
2022-10-07T19:58:24.974Z,77.05
2022-10-07T19:59:57.199Z,77.07
2022-10-07T20:01:32.571Z,76.99
2022-10-07T20:03:05.032Z,76.90
2022-10-07T20:04:37.163Z,76.82
2022-10-07T20:06:10.373Z,76.94
2022-10-07T20:07:42.604Z,77.16
2022-10-07T20:09:16.655Z,77.18
2022-10-07T20:10:48.736Z,77.24
2022-10-07T20:12:20.868Z,77.27
2022-10-07T20:13:54.691Z,77.34
2022-10-07T20:15:26.859Z,77.42
2022-10-07T20:16:58.924Z,77.60
2022-10-07T20:18:31.949Z,77.89
2022-10-07T20:20:04.221Z,77.96
2022-10-07T20:21:38.056Z,78.13
2022-10-07T20:23:10.313Z,78.41
2022-10-07T20:24:42.361Z,78.58
2022-10-07T20:26:19.593Z,78.79
2022-10-07T20:27:51.654Z,78.68
2022-10-07T20:29:25.187Z,78.36
2022-10-07T20:31:02.660Z,78.32
2022-10-07T20:32:35.908Z,78.16
2022-10-07T20:34:10.482Z,77.98
2022-10-07T20:35:42.540Z,77.90
2022-10-07T20:37:14.836Z,77.74
2022-10-07T20:39:05.190Z,77.71
2022-10-07T20:40:55.770Z,77.42
2022-10-07T20:42:29.866Z,77.22
2022-10-07T20:44:02.397Z,77.58
2022-10-07T20:45:54.526Z,77.65
2022-10-07T20:47:30.283Z,77.66
2022-10-07T20:49:02.309Z,77.79
2022-10-07T20:50:34.480Z,77.86
2022-10-07T20:52:17.027Z,77.99
2022-10-07T20:53:50.267Z,78.18
2022-10-07T20:55:22.406Z,78.37
2022-10-07T20:56:59.205Z,78.36
2022-10-07T20:58:37.820Z,78.39
2022-10-07T21:00:16.647Z,78.00
2022-10-07T21:01:48.838Z,78.05
2022-10-07T21:03:21.459Z,77.95
2022-10-07T21:04:53.883Z,78.26
2022-10-07T21:06:25.925Z,78.13
2022-10-07T21:07:58.146Z,78.14
2022-10-07T21:09:31.240Z,78.21
2022-10-07T21:11:05.020Z,78.35
2022-10-07T21:12:37.009Z,78.42
2022-10-07T21:14:09.992Z,78.55
2022-10-07T21:15:42.877Z,78.87
2022-10-07T21:17:15.847Z,78.76
2022-10-07T21:18:48.030Z,78.79
2022-10-07T21:20:20.948Z,78.88
2022-10-07T21:21:54.091Z,78.53
2022-10-07T21:23:26.416Z,78.51
2022-10-07T21:24:58.989Z,78.65
2022-10-07T21:26:31.350Z,78.80
2022-10-07T21:28:03.480Z,78.61
2022-10-07T21:29:40.436Z,78.74
2022-10-07T21:31:17.796Z,78.72
2022-10-07T21:32:50.434Z,78.74
2022-10-07T21:34:22.757Z,78.85
2022-10-07T21:36:01.661Z,78.92